createdAt,value
2018-07-10T00:03:12.964Z,101916.50
2018-07-10T00:06:46.139Z,101914.11
2018-07-10T00:11:07.823Z,101907.87
2018-07-10T00:14:09.936Z,101907.63
2018-07-10T00:17:12.120Z,101908.55
2018-07-10T00:20:14.309Z,101902.57
2018-07-10T00:23:16.300Z,101903.32
2018-07-10T00:26:18.435Z,101903.52
2018-07-10T00:29:20.522Z,101898.76
2018-07-10T00:32:22.647Z,101897.92
2018-07-10T00:35:25.134Z,101902.93
2018-07-10T00:38:38.856Z,101900.88
2018-07-10T00:41:41.561Z,101901.76
2018-07-10T00:44:43.562Z,101904.05
2018-07-10T00:47:45.714Z,101906.97
2018-07-10T00:50:47.828Z,101902.30
2018-07-10T00:53:50.078Z,101898.63
2018-07-10T00:56:52.167Z,101898.05
2018-07-10T00:59:54.256Z,101894.63
2018-07-10T01:02:56.950Z,101888.28
2018-07-10T01:05:58.984Z,101886.34
2018-07-10T01:09:01.162Z,101890.56
2018-07-10T01:12:03.193Z,101884.42
2018-07-10T01:15:05.427Z,101888.55
2018-07-10T01:18:07.651Z,101881.86
2018-07-10T01:21:19.835Z,101883.60
2018-07-10T01:24:21.975Z,101875.21
2018-07-10T01:27:23.955Z,101876.80
2018-07-10T01:30:26.015Z,101877.73
2018-07-10T01:33:29.192Z,101872.05
2018-07-10T01:36:31.174Z,101866.08
2018-07-10T01:39:33.258Z,101863.27
2018-07-10T01:42:35.432Z,101866.28
2018-07-10T01:45:37.552Z,101863.47
2018-07-10T01:48:39.629Z,101863.05
2018-07-10T01:51:41.726Z,101864.11
2018-07-10T01:54:43.759Z,101859.31
2018-07-10T01:57:46.172Z,101857.74
2018-07-10T02:00:48.429Z,101856.54
2018-07-10T02:03:50.468Z,101854.55
2018-07-10T02:06:52.462Z,101856.95
2018-07-10T02:09:54.636Z,101851.43
2018-07-10T02:12:56.719Z,101846.74
2018-07-10T02:15:58.888Z,101839.87
2018-07-10T02:19:01.043Z,101840.60
2018-07-10T02:22:04.394Z,101837.21
2018-07-10T02:25:06.503Z,101834.11
2018-07-10T02:28:09.740Z,101829.05
2018-07-10T02:31:11.843Z,101835.12
2018-07-10T02:34:13.980Z,101835.71
2018-07-10T02:37:15.999Z,101832.13
2018-07-10T02:40:18.063Z,101828.98
2018-07-10T02:43:20.214Z,101825.73
2018-07-10T02:46:22.339Z,101824.52
2018-07-10T02:49:24.503Z,101821.39
2018-07-10T02:52:39.612Z,101822.35
2018-07-10T02:55:42.921Z,101824.68
2018-07-10T02:58:45.373Z,101822.02
2018-07-10T03:01:47.559Z,101820.62
2018-07-10T03:04:56.440Z,101820.04
2018-07-10T03:08:00.049Z,101819.68
2018-07-10T03:11:02.147Z,101812.71
2018-07-10T03:14:06.681Z,101817.07
2018-07-10T03:17:08.703Z,101817.30
2018-07-10T03:20:10.926Z,101806.93
2018-07-10T03:23:13.120Z,101807.96
2018-07-10T03:26:15.239Z,101809.37
2018-07-10T03:29:17.400Z,101804.03
2018-07-10T03:32:19.816Z,101802.98
2018-07-10T03:35:21.851Z,101801.93
2018-07-10T03:38:23.812Z,101811.80
2018-07-10T03:41:26.947Z,101813.67
2018-07-10T03:44:29.529Z,101815.89
2018-07-10T03:47:31.916Z,101824.13
2018-07-10T03:50:34.288Z,101820.40
2018-07-10T03:53:36.458Z,101827.69
2018-07-10T03:56:38.662Z,101822.17
2018-07-10T03:59:45.687Z,101828.81
2018-07-10T04:02:49.838Z,101820.86
2018-07-10T04:05:51.956Z,101816.08
2018-07-10T04:08:54.303Z,101814.87
2018-07-10T04:11:56.435Z,101811.21
2018-07-10T04:14:59.523Z,101810.75
2018-07-10T04:18:06.153Z,101817.72
2018-07-10T04:21:18.908Z,101819.51
2018-07-10T04:24:21.498Z,101822.01
2018-07-10T04:27:30.132Z,101821.92
2018-07-10T04:30:40.744Z,101820.43
2018-07-10T04:33:44.611Z,101829.10
2018-07-10T04:36:47.257Z,101822.74
2018-07-10T04:39:49.336Z,101823.97
2018-07-10T04:42:55.306Z,101821.24
2018-07-10T04:45:58.537Z,101825.65
2018-07-10T04:49:05.341Z,101829.04
2018-07-10T04:52:17.649Z,101819.26
2018-07-10T04:55:19.942Z,101815.07
2018-07-10T04:58:22.020Z,101816.41
2018-07-10T05:01:32.519Z,101818.02
2018-07-10T05:04:34.784Z,101815.71
2018-07-10T05:07:37.250Z,101812.02
2018-07-10T05:10:39.492Z,101811.16
2018-07-10T05:13:43.177Z,101813.72
2018-07-10T05:16:45.501Z,101812.22
2018-07-10T05:19:47.995Z,101803.24
2018-07-10T05:22:50.141Z,101807.27
2018-07-10T05:25:54.271Z,101811.01
2018-07-10T05:28:56.529Z,101812.91
2018-07-10T05:31:58.442Z,101814.60
2018-07-10T05:35:01.947Z,101808.25
2018-07-10T05:38:04.772Z,101807.58
2018-07-10T05:41:07.631Z,101804.77
2018-07-10T05:44:09.789Z,101807.46
2018-07-10T05:47:12.964Z,101805.20
2018-07-10T05:50:16.793Z,101803.41
2018-07-10T05:53:18.891Z,101804.00
2018-07-10T05:56:21.009Z,101801.99
2018-07-10T05:59:23.191Z,101805.01
2018-07-10T06:02:26.424Z,101803.86
2018-07-10T06:05:28.828Z,101803.57
2018-07-10T06:08:31.028Z,101806.24
2018-07-10T06:11:34.236Z,101808.94
2018-07-10T06:14:36.391Z,101809.43
2018-07-10T06:17:38.403Z,101806.07
2018-07-10T06:20:41.182Z,101809.07
2018-07-10T06:23:44.135Z,101808.01
2018-07-10T06:26:51.691Z,101809.50
2018-07-10T06:30:04.076Z,101809.95
2018-07-10T06:33:27.722Z,101815.14
2018-07-10T06:36:32.362Z,101815.68
2018-07-10T06:39:34.640Z,101813.38
2018-07-10T06:43:44.375Z,101812.69
2018-07-10T06:46:53.981Z,101811.82
2018-07-10T06:49:57.963Z,101814.15
2018-07-10T06:53:01.053Z,101819.62
2018-07-10T06:56:02.868Z,101828.64
2018-07-10T06:59:04.929Z,101832.70
2018-07-10T07:02:07.177Z,101832.29
2018-07-10T07:05:09.391Z,101841.82
2018-07-10T07:08:12.444Z,101842.81
2018-07-10T07:11:14.632Z,101847.08
2018-07-10T07:14:16.687Z,101847.08
2018-07-10T07:17:18.856Z,101853.88
2018-07-10T07:20:21.715Z,101855.66
2018-07-10T07:23:23.734Z,101861.33
2018-07-10T07:26:25.779Z,101865.46
2018-07-10T07:29:28.931Z,101870.57
2018-07-10T07:32:31.342Z,101871.83
2018-07-10T07:35:33.557Z,101864.18
2018-07-10T07:38:35.646Z,101862.64
2018-07-10T07:41:38.071Z,101861.36
2018-07-10T07:44:40.195Z,101865.16
2018-07-10T07:47:42.753Z,101863.65
2018-07-10T07:50:44.920Z,101859.07
2018-07-10T07:53:47.139Z,101859.17
2018-07-10T07:56:49.349Z,101866.29
2018-07-10T07:59:51.468Z,101867.50
2018-07-10T08:02:53.648Z,101874.58
2018-07-10T08:05:56.872Z,101874.82
2018-07-10T08:08:58.936Z,101876.14
2018-07-10T08:12:01.422Z,101884.95
2018-07-10T08:15:03.640Z,101880.82
2018-07-10T08:18:05.722Z,101883.71
2018-07-10T08:21:07.851Z,101898.45
2018-07-10T08:24:10.039Z,101893.18
2018-07-10T08:27:13.079Z,101893.35
2018-07-10T08:30:15.250Z,101891.27
2018-07-10T08:33:17.606Z,101894.70
2018-07-10T08:36:19.621Z,101892.87
2018-07-10T08:39:21.900Z,101897.62
2018-07-10T08:42:24.154Z,101895.22
2018-07-10T08:45:26.792Z,101887.74
2018-07-10T08:48:29.184Z,101881.62
2018-07-10T08:51:31.337Z,101884.91
2018-07-10T08:54:33.482Z,101893.57
2018-07-10T08:57:35.528Z,101895.19
2018-07-10T09:00:37.725Z,101893.57
2018-07-10T09:03:39.866Z,101889.63
2018-07-10T09:06:44.254Z,101880.04
2018-07-10T09:09:46.374Z,101877.01
2018-07-10T09:12:48.468Z,101876.58
2018-07-10T09:15:50.667Z,101874.24
2018-07-10T09:18:52.739Z,101873.20
2018-07-10T09:22:01.163Z,101885.46
2018-07-10T09:25:04.533Z,101899.32
2018-07-10T09:28:06.581Z,101901.47
2018-07-10T09:31:08.724Z,101903.51
2018-07-10T09:34:10.809Z,101895.37
2018-07-10T09:37:18.527Z,101888.19
2018-07-10T09:40:20.969Z,101881.98
2018-07-10T09:43:24.541Z,101877.92
2018-07-10T09:46:27.903Z,101874.11
2018-07-10T09:49:30.434Z,101872.67
2018-07-10T09:52:33.088Z,101862.44
2018-07-10T09:55:35.217Z,101864.19
2018-07-10T09:58:37.399Z,101861.48
2018-07-10T10:01:39.621Z,101857.13
2018-07-10T10:04:41.752Z,101856.89
2018-07-10T10:07:45.159Z,101853.30
2018-07-10T10:10:47.192Z,101849.65
2018-07-10T10:13:49.634Z,101841.94
2018-07-10T10:16:52.804Z,101836.32
2018-07-10T10:19:56.419Z,101829.75
2018-07-10T10:23:00.431Z,101833.86
2018-07-10T10:26:02.704Z,101831.60
2018-07-10T10:29:04.763Z,101835.00
2018-07-10T10:32:07.953Z,101835.05
2018-07-10T10:35:10.009Z,101827.19
2018-07-10T10:38:12.257Z,101830.13
2018-07-10T10:41:16.324Z,101823.16
2018-07-10T10:44:18.480Z,101817.86
2018-07-10T10:47:21.882Z,101817.55
2018-07-10T10:50:23.957Z,101819.24
2018-07-10T10:53:26.062Z,101819.43
2018-07-10T10:56:28.260Z,101816.23
2018-07-10T10:59:30.373Z,101820.22
2018-07-10T11:02:32.498Z,101821.42
2018-07-10T11:05:34.818Z,101818.54
2018-07-10T11:08:37.015Z,101812.77
2018-07-10T11:11:39.212Z,101810.93
2018-07-10T11:14:44.415Z,101802.89
2018-07-10T11:17:56.085Z,101806.09
2018-07-10T11:21:22.805Z,101812.38
2018-07-10T11:24:25.389Z,101818.55
2018-07-10T11:27:33.957Z,101811.45
2018-07-10T11:30:36.478Z,101811.66
2018-07-10T11:33:38.614Z,101814.67
2018-07-10T11:36:41.803Z,101810.47
2018-07-10T11:39:44.596Z,101799.86
2018-07-10T11:42:46.752Z,101788.22
2018-07-10T11:45:48.954Z,101798.49
2018-07-10T11:48:51.056Z,101783.04
2018-07-10T11:51:54.440Z,101784.43
2018-07-10T11:54:56.705Z,101791.86
2018-07-10T11:57:59.306Z,101789.50
2018-07-10T12:01:01.538Z,101782.87
2018-07-10T12:04:04.077Z,101783.08
2018-07-10T12:07:06.229Z,101781.66
2018-07-10T12:10:19.718Z,101786.90
2018-07-10T12:13:21.840Z,101786.98
2018-07-10T12:16:23.936Z,101788.88
2018-07-10T12:19:26.004Z,101794.92
2018-07-10T12:22:28.188Z,101791.23
2018-07-10T12:25:32.316Z,101786.88
2018-07-10T12:28:34.463Z,101779.39
2018-07-10T12:31:36.551Z,101766.27
2018-07-10T12:34:39.677Z,101758.75
2018-07-10T12:37:41.700Z,101755.10
2018-07-10T12:40:44.365Z,101755.42
2018-07-10T12:43:46.439Z,101760.61
2018-07-10T12:46:48.644Z,101753.35
2018-07-10T12:49:50.811Z,101752.42
2018-07-10T12:52:52.981Z,101748.74
2018-07-10T12:55:58.208Z,101752.43
2018-07-10T12:59:00.298Z,101753.19
2018-07-10T13:02:02.473Z,101750.98
2018-07-10T13:05:05.764Z,101745.85
2018-07-10T13:08:07.828Z,101750.32
2018-07-10T13:11:10.000Z,101756.43
2018-07-10T13:14:12.103Z,101753.59
2018-07-10T13:17:15.541Z,101755.99
2018-07-10T13:20:18.393Z,101764.61
2018-07-10T13:23:20.592Z,101753.14
2018-07-10T13:26:22.686Z,101755.80
2018-07-10T13:29:24.728Z,101762.90
2018-07-10T13:32:26.781Z,101769.95
2018-07-10T13:35:30.247Z,101772.57
2018-07-10T13:38:32.280Z,101767.47
2018-07-10T13:41:34.788Z,101775.12
2018-07-10T13:44:36.924Z,101778.53
2018-07-10T13:47:39.060Z,101770.71
2018-07-10T13:50:41.320Z,101758.20
2018-07-10T13:53:43.999Z,101764.96
2018-07-10T13:56:46.175Z,101764.89
2018-07-10T13:59:48.635Z,101762.35
2018-07-10T14:02:52.644Z,101761.41
2018-07-10T14:05:55.012Z,101761.09
2018-07-10T14:08:57.088Z,101756.79
2018-07-10T14:11:59.313Z,101757.68
2018-07-10T14:15:02.472Z,101758.78
2018-07-10T14:18:05.028Z,101759.51
2018-07-10T14:21:07.839Z,101757.32
2018-07-10T14:24:10.011Z,101753.61
2018-07-10T14:27:12.114Z,101753.92
2018-07-10T14:30:14.730Z,101751.36
2018-07-10T14:33:18.030Z,101742.30
2018-07-10T14:36:20.132Z,101731.22
2018-07-10T14:39:22.314Z,101737.24
2018-07-10T14:42:24.569Z,101730.15
2018-07-10T14:45:26.782Z,101730.41
2018-07-10T14:48:32.144Z,101735.61
2018-07-10T14:51:42.071Z,101736.05
2018-07-10T14:54:45.192Z,101724.26
2018-07-10T14:57:47.266Z,101723.48
2018-07-10T15:00:49.803Z,101719.92
2018-07-10T15:03:51.931Z,101710.64
2018-07-10T15:06:54.048Z,101715.33
2018-07-10T15:09:56.325Z,101708.80
2018-07-10T15:12:58.445Z,101706.08
2018-07-10T15:16:02.386Z,101693.97
2018-07-10T15:19:04.427Z,101698.17
2018-07-10T15:22:06.600Z,101696.93
2018-07-10T15:25:08.634Z,101693.87
2018-07-10T15:28:10.720Z,101689.19
2018-07-10T15:31:12.954Z,101689.34
2018-07-10T15:34:15.965Z,101689.75
2018-07-10T15:37:18.625Z,101691.52
2018-07-10T15:40:20.833Z,101684.72
2018-07-10T15:43:23.859Z,101695.52
2018-07-10T15:46:26.009Z,101692.84
2018-07-10T15:49:28.251Z,101694.49
2018-07-10T15:52:31.353Z,101692.17
2018-07-10T15:55:33.371Z,101697.30
2018-07-10T15:58:35.966Z,101692.77
2018-07-10T16:01:38.015Z,101689.83
2018-07-10T16:04:40.067Z,101688.92
2018-07-10T16:07:42.306Z,101690.71
2018-07-10T16:10:48.520Z,101686.40
2018-07-10T16:13:50.616Z,101685.58
2018-07-10T16:16:52.862Z,101686.04
2018-07-10T16:20:06.205Z,101688.38
2018-07-10T16:23:08.376Z,101688.60
2018-07-10T16:26:15.912Z,101686.17
2018-07-10T16:29:18.945Z,101687.25
2018-07-10T16:32:21.021Z,101691.23
2018-07-10T16:35:27.315Z,101677.46
2018-07-10T16:38:29.780Z,101684.77
2018-07-10T16:41:37.889Z,101683.47
2018-07-10T16:44:41.943Z,101677.80
2018-07-10T16:47:48.415Z,101677.17
2018-07-10T16:51:09.147Z,101681.94
2018-07-10T16:54:11.370Z,101682.18
2018-07-10T16:57:13.560Z,101678.23
2018-07-10T17:00:16.987Z,101683.23
2018-07-10T17:03:19.095Z,101669.26
2018-07-10T17:06:22.046Z,101672.34
2018-07-10T17:09:24.148Z,101675.14
2018-07-10T17:12:26.227Z,101668.92
2018-07-10T17:15:28.443Z,101667.61
2018-07-10T17:18:30.539Z,101666.13
2018-07-10T17:21:33.804Z,101660.73
2018-07-10T17:24:35.928Z,101672.88
2018-07-10T17:27:38.557Z,101670.14
2018-07-10T17:30:41.062Z,101676.61
2018-07-10T17:33:43.349Z,101672.51
2018-07-10T17:36:46.103Z,101671.94
2018-07-10T17:39:48.803Z,101674.91
2018-07-10T17:42:50.896Z,101677.13
2018-07-10T17:45:52.963Z,101680.96
2018-07-10T17:48:55.191Z,101677.24
2018-07-10T17:51:57.285Z,101675.86
2018-07-10T17:54:59.367Z,101679.12
2018-07-10T17:58:02.394Z,101679.20
2018-07-10T18:01:04.643Z,101681.89
2018-07-10T18:04:07.227Z,101676.22
2018-07-10T18:07:09.276Z,101677.69
2018-07-10T18:10:11.514Z,101682.19
2018-07-10T18:13:13.694Z,101675.38
2018-07-10T18:16:16.805Z,101677.24
2018-07-10T18:19:18.975Z,101675.00
2018-07-10T18:22:21.069Z,101673.77
2018-07-10T18:25:23.224Z,101676.94
2018-07-10T18:28:25.417Z,101674.96
2018-07-10T18:31:27.640Z,101676.22
2018-07-10T18:34:29.819Z,101682.82
2018-07-10T18:37:31.895Z,101682.58
2018-07-10T18:40:34.156Z,101688.72
2018-07-10T18:43:36.279Z,101687.92
2018-07-10T18:46:38.256Z,101687.65
2018-07-10T18:49:40.631Z,101692.91
2018-07-10T18:52:42.824Z,101691.89
2018-07-10T18:55:44.963Z,101687.24
2018-07-10T18:58:57.056Z,101691.80
2018-07-10T19:02:03.560Z,101689.57
2018-07-10T19:05:07.145Z,101689.74
2018-07-10T19:08:09.283Z,101698.72
2018-07-10T19:11:14.342Z,101702.69
2018-07-10T19:14:17.511Z,101698.88
2018-07-10T19:17:25.240Z,101693.94
2018-07-10T19:20:29.339Z,101698.40
2018-07-10T19:23:37.287Z,101698.66
2018-07-10T19:26:39.336Z,101703.08
2018-07-10T19:29:49.711Z,101703.76
2018-07-10T19:32:51.886Z,101697.27
2018-07-10T19:35:54.066Z,101691.17
2018-07-10T19:38:56.212Z,101693.81
2018-07-10T19:41:58.311Z,101697.09
2018-07-10T19:45:01.518Z,101700.52
2018-07-10T19:48:03.792Z,101702.32
2018-07-10T19:51:08.067Z,101705.58
2018-07-10T19:54:12.123Z,101706.88
2018-07-10T19:57:22.992Z,101711.29
2018-07-10T20:00:26.706Z,101719.45
2018-07-10T20:03:53.713Z,101717.03
2018-07-10T20:07:10.632Z,101725.07
2018-07-10T20:10:22.963Z,101732.71
2018-07-10T20:13:35.764Z,101734.17
2018-07-10T20:16:43.785Z,101733.73
2018-07-10T20:19:49.662Z,101728.93
2018-07-10T20:23:09.120Z,101730.29
2018-07-10T20:26:53.963Z,101728.83
2018-07-10T20:30:36.411Z,101734.62
2018-07-10T20:35:15.523Z,101733.40
2018-07-10T20:38:18.275Z,101730.05
2018-07-10T20:41:20.710Z,101736.51
2018-07-10T20:44:22.884Z,101734.49
2018-07-10T20:47:27.941Z,101735.77
2018-07-10T20:50:45.610Z,101736.14
2018-07-10T20:53:55.480Z,101742.50
2018-07-10T20:57:02.000Z,101739.54
2018-07-10T21:00:09.572Z,101743.66
2018-07-10T21:03:22.231Z,101738.31
2018-07-10T21:06:35.650Z,101740.34
2018-07-10T21:09:51.885Z,101736.68
2018-07-10T21:13:01.675Z,101738.40
2018-07-10T21:16:08.846Z,101740.37
2018-07-10T21:19:23.968Z,101741.24
2018-07-10T21:23:37.396Z,101742.67
2018-07-10T21:26:46.413Z,101740.92
2018-07-10T21:29:56.259Z,101741.06
2018-07-10T21:33:02.861Z,101739.88
2018-07-10T21:36:06.431Z,101735.93
2018-07-10T21:39:19.930Z,101733.60
2018-07-10T21:42:38.951Z,101730.32
2018-07-10T21:45:51.381Z,101723.87
2018-07-10T21:49:58.957Z,101725.78
2018-07-10T21:53:01.723Z,101724.83
2018-07-10T21:56:04.039Z,101722.81
2018-07-10T21:59:06.177Z,101720.05
2018-07-10T22:02:09.172Z,101724.33
2018-07-10T22:05:11.348Z,101723.87
2018-07-10T22:08:14.499Z,101723.40
2018-07-10T22:11:16.771Z,101720.82
2018-07-10T22:14:19.179Z,101722.54
2018-07-10T22:17:22.639Z,101726.77
2018-07-10T22:20:24.828Z,101724.64
2018-07-10T22:23:26.975Z,101726.65
2018-07-10T22:26:29.300Z,101725.01
2018-07-10T22:29:38.396Z,101724.21
2018-07-10T22:32:46.400Z,101729.82
2018-07-10T22:35:48.508Z,101726.69
2018-07-10T22:38:51.300Z,101725.78
2018-07-10T22:41:53.991Z,101719.73
2018-07-10T22:44:57.831Z,101720.14
2018-07-10T22:48:00.713Z,101713.40
2018-07-10T22:51:03.180Z,101712.96
2018-07-10T22:54:05.756Z,101711.90
2018-07-10T22:57:09.162Z,101711.05
2018-07-10T23:00:34.767Z,101708.71
2018-07-10T23:03:36.968Z,101708.71
2018-07-10T23:06:39.068Z,101705.62
2018-07-10T23:09:41.140Z,101707.58
2018-07-10T23:12:43.148Z,101700.51
2018-07-10T23:15:46.036Z,101704.76
2018-07-10T23:18:48.096Z,101699.36
2018-07-10T23:21:50.260Z,101689.11
2018-07-10T23:24:52.291Z,101684.36
2018-07-10T23:27:59.982Z,101684.95
2018-07-10T23:31:03.392Z,101681.68
2018-07-10T23:34:10.088Z,101681.94
2018-07-10T23:37:12.199Z,101682.17
2018-07-10T23:40:14.344Z,101677.10
2018-07-10T23:43:16.934Z,101675.51
2018-07-10T23:46:30.380Z,101675.79
2018-07-10T23:49:32.556Z,101674.71
2018-07-10T23:53:45.300Z,101674.03
2018-07-10T23:56:47.436Z,101673.05
2018-07-10T23:59:49.477Z,101681.91
